Time;durP1;ratioP1;P1;durP2;ratioP2;P2;SDS_P1;SDS_P2;PMS_P1;PMS_P2;Temp;Humidity;BMP_temperature;BMP_pressure;BME280_temperature;BME280_humidity;BME280_pressure;Samples;Min_cycle;Max_cycle;Signal;HPM_P1;HPM_P2
2024/01/30 00:02:06;;;;;;;;;;;;;;;2.82;69.96;103291.06;106287;1259;74191;-79
2024/01/30 00:04:46;;;;;;;;;;;;;;;2.82;69.66;103295.95;106458;1253;68230;-79
2024/01/30 00:07:26;;;;;;;;;;;;;;;2.79;69.97;103296.12;106403;1259;71372;-79
2024/01/30 00:10:06;;;;;;;;;;;;;;;2.65;70.26;103295.58;106453;1255;60539;-79
2024/01/30 00:12:45;;;;;;;;;;;;;;;2.47;71.16;103292.67;106494;1253;60467;-79
2024/01/30 00:15:25;;;;;;;;;;;;;;;2.49;71.31;103293.91;106852;1253;73276;-79
2024/01/30 00:18:05;;;;;;;;;;;;;;;2.57;70.82;103297.91;107376;1253;67117;-79
2024/01/30 00:20:45;;;;;;;;;;;;;;;2.63;70.18;103298.27;107130;1256;71577;-79
2024/01/30 00:23:24;;;;;;;;;;;;;;;2.60;69.92;103294.64;106351;1254;60475;-79
2024/01/30 00:26:05;;;;;;;;;;;;;;;2.47;70.59;103294.16;106560;1253;60377;-79
2024/01/30 00:28:44;;;;;;;;;;;;;;;2.52;70.50;103293.60;106673;1254;73919;-79
2024/01/30 00:31:24;;;;;;;;;;;;;;;2.58;69.98;103289.11;106404;1257;68668;-79
2024/01/30 00:34:04;;;;;;;;;;;;;;;2.43;70.46;103286.66;106378;1253;72624;-79
2024/01/30 00:36:44;;;;;;;;;;;;;;;2.35;71.02;103287.08;106388;1259;60466;-79
2024/01/30 00:39:24;;;;;;;;;;;;;;;2.44;70.71;103286.91;106236;1255;60514;-79
2024/01/30 00:42:03;;;;;;;;;;;;;;;2.55;69.96;103287.61;106575;1255;73879;-79
2024/01/30 00:44:43;;;;;;;;;;;;;;;2.54;69.83;103286.20;106496;1258;68383;-79
2024/01/30 00:47:22;;;;;;;;;;;;;;;2.48;70.24;103285.64;106320;1262;72308;-79
2024/01/30 00:50:02;;;;;;;;;;;;;;;2.42;70.19;103282.81;107355;1253;60504;-79
2024/01/30 00:52:44;;;;;;;;;;;;;;;2.39;70.28;103278.95;106266;1257;60563;-79
2024/01/30 00:55:25;;;;;;;;;;;;;;;2.46;69.87;103277.02;106531;1255;72403;-79
2024/01/30 00:58:04;;;;;;;;;;;;;;;2.48;69.41;103277.48;106425;1258;68668;-79
2024/01/30 01:00:44;;;;;;;;;;;;;;;2.55;68.95;103276.74;106368;1253;72976;-79
2024/01/30 01:03:24;;;;;;;;;;;;;;;2.54;68.33;103275.63;106363;1253;60444;-79
2024/01/30 01:06:04;;;;;;;;;;;;;;;2.52;67.89;103267.67;106469;1254;60560;-79
2024/01/30 01:08:44;;;;;;;;;;;;;;;2.46;68.20;103266.02;106451;1253;73871;-79
2024/01/30 01:11:23;;;;;;;;;;;;;;;2.43;68.03;103266.13;106404;1253;67413;-79
2024/01/30 01:13:51;;;;;;;;;;;;;;;2.44;67.80;103268.05;106392;1256;72737;-79
2024/01/30 01:16:24;;;;;;;;;;;;;;;2.45;67.66;103268.73;106377;1258;61739;-79
2024/01/30 01:19:04;;;;;;;;;;;;;;;2.29;68.18;103263.24;106321;1258;60342;-79
2024/01/30 01:21:44;;;;;;;;;;;;;;;2.05;69.47;103259.16;106623;1255;73881;-79
2024/01/30 01:24:24;;;;;;;;;;;;;;;1.98;70.45;103256.05;106360;1256;66136;-79
2024/01/30 01:27:07;;;;;;;;;;;;;;;2.01;70.42;103254.52;106565;1256;71272;-79
2024/01/30 01:29:46;;;;;;;;;;;;;;;2.01;70.61;103250.45;106546;1256;60701;-79
2024/01/30 01:32:26;;;;;;;;;;;;;;;1.94;71.01;103253.20;106436;1255;60480;-79
2024/01/30 01:35:06;;;;;;;;;;;;;;;1.98;70.81;103253.39;106388;1253;73868;-79
2024/01/30 01:37:46;;;;;;;;;;;;;;;2.15;69.86;103252.29;106460;1253;68510;-79
2024/01/30 01:40:29;;;;;;;;;;;;;;;2.13;69.94;103248.70;106621;1254;72716;-79
2024/01/30 01:43:09;;;;;;;;;;;;;;;2.21;69.71;103249.16;106344;1254;60810;-79
2024/01/30 01:45:49;;;;;;;;;;;;;;;2.04;70.55;103248.48;106706;1253;60512;-79
2024/01/30 01:48:29;;;;;;;;;;;;;;;2.06;70.43;103244.33;106462;1258;73824;-79
2024/01/30 01:51:09;;;;;;;;;;;;;;;2.08;70.46;103239.26;106345;1258;67588;-79
2024/01/30 01:53:48;;;;;;;;;;;;;;;2.17;69.98;103232.09;106400;1258;72638;-79
2024/01/30 01:56:31;;;;;;;;;;;;;;;2.20;69.44;103233.25;106363;1259;60486;-79
2024/01/30 01:59:11;;;;;;;;;;;;;;;2.06;69.94;103224.71;106267;1257;60460;-79
2024/01/30 02:01:51;;;;;;;;;;;;;;;2.13;69.59;103222.36;106425;1257;73904;-78
2024/01/30 02:04:32;;;;;;;;;;;;;;;2.11;69.50;103216.80;106606;1259;68485;-78
2024/01/30 02:07:11;;;;;;;;;;;;;;;2.04;69.51;103215.07;106611;1257;71667;-78
2024/01/30 02:09:51;;;;;;;;;;;;;;;1.91;70.47;103212.42;106448;1259;60555;-78
2024/01/30 02:12:31;;;;;;;;;;;;;;;1.96;70.33;103213.88;106548;1259;60540;-78
2024/01/30 02:15:11;;;;;;;;;;;;;;;2.00;69.89;103212.94;107028;1253;71498;-79
2024/01/30 02:17:44;;;;;;;;;;;;;;;2.02;69.44;103210.55;106606;1254;67438;-78
2024/01/30 02:20:18;;;;;;;;;;;;;;;1.96;70.11;103211.02;106176;1256;71050;-78
2024/01/30 02:22:58;;;;;;;;;;;;;;;1.98;70.11;103211.74;106378;1260;60461;-79
2024/01/30 02:25:56;;;;;;;;;;;;;;;1.88;70.43;103210.31;106508;1253;60498;-78
2024/01/30 02:28:36;;;;;;;;;;;;;;;1.85;70.98;103206.48;106280;1253;73011;-78
2024/01/30 02:31:16;;;;;;;;;;;;;;;1.85;70.50;103207.83;106336;1256;67246;-79
2024/01/30 02:33:55;;;;;;;;;;;;;;;1.87;70.46;103206.38;106400;1257;72683;-78
2024/01/30 02:36:35;;;;;;;;;;;;;;;1.87;70.14;103203.80;106348;1257;60443;-79
2024/01/30 02:39:15;;;;;;;;;;;;;;;1.84;70.36;103203.57;106387;1254;60626;-78
2024/01/30 02:41:55;;;;;;;;;;;;;;;1.87;70.13;103198.19;106422;1253;73946;-78
2024/01/30 02:44:34;;;;;;;;;;;;;;;1.90;69.87;103196.88;106953;1253;67229;-79
2024/01/30 02:47:14;;;;;;;;;;;;;;;1.95;69.77;103198.91;106362;1257;71405;-79
2024/01/30 02:49:54;;;;;;;;;;;;;;;1.99;69.49;103200.09;106533;1257;60551;-78
2024/01/30 02:52:35;;;;;;;;;;;;;;;1.96;69.73;103194.23;106512;1253;60520;-78
2024/01/30 02:55:17;;;;;;;;;;;;;;;1.97;69.68;103193.94;106284;1254;72564;-78
2024/01/30 02:57:57;;;;;;;;;;;;;;;2.12;69.63;103189.45;106293;1258;68509;-78
2024/01/30 03:00:37;;;;;;;;;;;;;;;2.12;69.41;103189.73;106364;1254;71582;-78
2024/01/30 03:03:16;;;;;;;;;;;;;;;2.21;69.74;103188.16;106327;1259;60487;-78
2024/01/30 03:05:56;;;;;;;;;;;;;;;2.29;69.47;103187.73;107036;1258;60417;-78
2024/01/30 03:08:36;;;;;;;;;;;;;;;2.21;70.25;103181.85;106802;1255;72673;-79
2024/01/30 03:11:10;;;;;;;;;;;;;;;2.18;71.04;103174.82;106418;1258;67109;-79
2024/01/30 03:13:43;;;;;;;;;;;;;;;2.24;70.98;103177.23;106471;1253;72668;-79
2024/01/30 03:16:17;;;;;;;;;;;;;;;2.31;70.75;103178.63;106435;1253;60969;-78
2024/01/30 03:18:45;;;;;;;;;;;;;;;2.30;71.09;103174.48;106353;1253;60560;-78
2024/01/30 03:21:18;;;;;;;;;;;;;;;2.30;71.31;103178.42;106574;1258;73818;-78
2024/01/30 03:23:52;;;;;;;;;;;;;;;2.43;70.70;103174.36;106512;1254;67559;-78
2024/01/30 03:26:25;;;;;;;;;;;;;;;2.46;70.47;103172.60;106355;1259;72661;-78
2024/01/30 03:28:53;;;;;;;;;;;;;;;2.46;70.61;103166.31;106878;1257;60472;-79
2024/01/30 03:31:27;;;;;;;;;;;;;;;2.48;70.83;103164.27;106638;1254;60911;-78
2024/01/30 03:34:01;;;;;;;;;;;;;;;2.47;70.76;103161.46;106537;1253;72685;-78
2024/01/30 03:36:35;;;;;;;;;;;;;;;2.35;71.25;103160.77;106433;1256;67505;-78
2024/01/30 03:39:03;;;;;;;;;;;;;;;2.31;71.68;103159.91;106360;1253;70630;-78
2024/01/30 03:41:36;;;;;;;;;;;;;;;2.30;71.71;103159.13;106516;1258;60441;-78
2024/01/30 03:44:10;;;;;;;;;;;;;;;2.36;71.29;103159.05;106357;1253;60814;-78
2024/01/30 03:46:38;;;;;;;;;;;;;;;2.47;70.44;103151.27;106333;1258;72881;-78
2024/01/30 03:49:11;;;;;;;;;;;;;;;2.37;70.76;103148.21;106293;1253;68707;-78
2024/01/30 03:51:47;;;;;;;;;;;;;;;2.31;71.34;103142.64;106668;1259;72598;-78
2024/01/30 03:54:21;;;;;;;;;;;;;;;2.30;71.47;103140.61;106529;1254;60690;-78
2024/01/30 03:56:48;;;;;;;;;;;;;;;2.23;72.56;103138.67;106505;1259;60360;-78
2024/01/30 03:59:23;;;;;;;;;;;;;;;2.29;72.52;103141.31;106580;1259;73929;-78
2024/01/30 04:01:59;;;;;;;;;;;;;;;2.25;73.98;103139.50;106759;1257;68649;-78
2024/01/30 04:04:33;;;;;;;;;;;;;;;2.50;72.94;103140.20;106458;1257;72718;-78
2024/01/30 04:07:01;;;;;;;;;;;;;;;2.55;73.11;103140.53;106399;1258;60469;-79
2024/01/30 04:09:34;;;;;;;;;;;;;;;2.60;73.16;103138.77;106371;1254;60549;-79
2024/01/30 04:12:09;;;;;;;;;;;;;;;2.65;73.30;103139.73;106829;1259;73117;-78
2024/01/30 04:14:42;;;;;;;;;;;;;;;2.86;72.12;103138.34;106450;1259;67135;-78
2024/01/30 04:17:10;;;;;;;;;;;;;;;2.85;72.54;103138.52;106544;1259;73309;-78
2024/01/30 04:19:43;;;;;;;;;;;;;;;2.94;72.45;103132.82;106444;1259;60504;-78
2024/01/30 04:22:17;;;;;;;;;;;;;;;3.06;71.94;103131.09;106651;1254;60454;-79
2024/01/30 04:24:51;;;;;;;;;;;;;;;3.15;70.96;103130.95;106559;1255;73948;-78
2024/01/30 04:27:18;;;;;;;;;;;;;;;3.18;70.33;103128.28;106322;1260;68359;-79
2024/01/30 04:29:52;;;;;;;;;;;;;;;3.21;69.63;103130.63;106532;1256;72814;-78
2024/01/30 04:32:26;;;;;;;;;;;;;;;3.15;69.45;103132.20;106503;1254;60524;-78
2024/01/30 04:34:59;;;;;;;;;;;;;;;3.06;69.58;103130.89;106386;1260;60518;-79
2024/01/30 04:37:27;;;;;;;;;;;;;;;2.95;69.60;103122.08;106769;1256;73855;-78
2024/01/30 04:39:55;;;;;;;;;;;;;;;2.82;70.10;103119.94;106569;1254;67224;-78
2024/01/30 04:42:29;;;;;;;;;;;;;;;2.69;70.41;103123.48;106482;1259;71531;-78
2024/01/30 04:45:03;;;;;;;;;;;;;;;2.59;70.64;103119.75;106642;1253;60357;-79
2024/01/30 04:47:30;;;;;;;;;;;;;;;2.54;70.46;103119.73;106500;1254;60364;-78
2024/01/30 04:50:05;;;;;;;;;;;;;;;2.54;70.10;103119.05;106388;1260;72688;-78
2024/01/30 04:52:38;;;;;;;;;;;;;;;2.50;69.53;103122.66;106568;1260;68385;-79
2024/01/30 04:55:12;;;;;;;;;;;;;;;2.46;69.13;103123.83;106646;1259;72678;-79
2024/01/30 04:57:40;;;;;;;;;;;;;;;2.44;68.78;103115.81;106586;1259;60426;-78
2024/01/30 05:00:14;;;;;;;;;;;;;;;2.38;68.49;103119.86;106412;1259;60582;-78
2024/01/30 05:02:48;;;;;;;;;;;;;;;2.21;68.96;103119.23;106440;1259;74334;-78
2024/01/30 05:05:21;;;;;;;;;;;;;;;2.10;69.29;103120.61;106366;1258;68437;-78
2024/01/30 05:07:49;;;;;;;;;;;;;;;1.97;69.79;103118.33;106359;1258;72630;-78
2024/01/30 05:10:23;;;;;;;;;;;;;;;1.90;70.02;103120.27;106309;1255;60598;-78
2024/01/30 05:12:56;;;;;;;;;;;;;;;1.98;69.50;103122.34;106521;1256;60274;-78
2024/01/30 05:15:30;;;;;;;;;;;;;;;1.77;70.06;103122.30;106541;1258;72849;-78
2024/01/30 05:17:58;;;;;;;;;;;;;;;1.66;70.44;103122.85;106239;1255;67406;-78
2024/01/30 05:20:31;;;;;;;;;;;;;;;1.65;70.15;103119.95;106027;1257;72734;-78
2024/01/30 05:23:05;;;;;;;;;;;;;;;1.68;69.80;103119.64;106639;1253;61989;-78
2024/01/30 05:25:33;;;;;;;;;;;;;;;1.56;69.89;103121.92;106283;1261;60452;-79
2024/01/30 05:28:06;;;;;;;;;;;;;;;1.51;70.47;103119.69;105971;1255;73860;-78
2024/01/30 05:30:40;;;;;;;;;;;;;;;1.48;70.58;103117.10;105897;1259;68918;-78
2024/01/30 05:33:13;;;;;;;;;;;;;;;1.58;69.71;103117.39;106519;1258;71450;-79
2024/01/30 05:35:41;;;;;;;;;;;;;;;1.78;68.46;103124.91;106624;1255;61808;-79
2024/01/30 05:38:15;;;;;;;;;;;;;;;1.84;67.76;103124.80;106891;1255;60472;-79
2024/01/30 05:40:49;;;;;;;;;;;;;;;1.84;67.37;103126.05;106283;1259;72566;-79
2024/01/30 05:43:23;;;;;;;;;;;;;;;1.83;67.53;103130.35;106471;1260;68404;-79
2024/01/30 05:45:51;;;;;;;;;;;;;;;1.89;67.86;103129.75;106324;1259;72677;-79
2024/01/30 05:48:25;;;;;;;;;;;;;;;1.85;68.06;103123.52;106293;1259;60470;-79
2024/01/30 05:50:59;;;;;;;;;;;;;;;1.82;68.18;103119.31;106353;1258;60431;-79
2024/01/30 05:53:33;;;;;;;;;;;;;;;1.94;67.81;103114.60;106436;1254;73881;-79
2024/01/30 05:56:02;;;;;;;;;;;;;;;1.90;67.74;103108.39;106466;1254;68392;-79
2024/01/30 05:58:37;;;;;;;;;;;;;;;1.82;68.03;103106.35;106414;1260;73158;-79
2024/01/30 06:01:11;;;;;;;;;;;;;;;1.78;68.46;103105.51;106465;1258;60450;-79
2024/01/30 06:03:38;;;;;;;;;;;;;;;1.94;68.12;103107.67;106840;1259;60335;-79
2024/01/30 06:06:12;;;;;;;;;;;;;;;2.23;66.89;103108.06;106533;1260;72619;-78
2024/01/30 06:08:46;;;;;;;;;;;;;;;2.37;66.26;103110.06;106525;1254;67446;-79
2024/01/30 06:11:19;;;;;;;;;;;;;;;2.25;67.31;103112.88;106464;1259;72691;-79
2024/01/30 06:13:48;;;;;;;;;;;;;;;2.19;68.44;103112.59;106402;1261;60444;-79
2024/01/30 06:16:22;;;;;;;;;;;;;;;2.30;68.58;103108.73;106389;1259;60582;-78
2024/01/30 06:18:56;;;;;;;;;;;;;;;2.40;68.91;103115.17;106245;1257;74271;-79
2024/01/30 06:21:31;;;;;;;;;;;;;;;2.45;69.44;103114.45;106405;1261;67401;-79
2024/01/30 06:23:59;;;;;;;;;;;;;;;2.35;70.96;103118.18;106263;1259;72729;-79
2024/01/30 06:26:26;;;;;;;;;;;;;;;2.45;71.81;103120.50;106379;1258;60597;-79
2024/01/30 06:29:00;;;;;;;;;;;;;;;2.45;72.77;103121.27;106385;1263;60588;-79
2024/01/30 06:31:28;;;;;;;;;;;;;;;2.54;73.65;103124.42;106468;1260;72743;-79
2024/01/30 06:33:55;;;;;;;;;;;;;;;2.68;74.11;103128.73;106332;1257;68989;-79
2024/01/30 06:36:28;;;;;;;;;;;;;;;2.96;73.54;103127.17;106369;1257;73789;-79
2024/01/30 06:39:02;;;;;;;;;;;;;;;3.22;72.93;103126.64;106568;1259;60575;-79
2024/01/30 06:41:30;;;;;;;;;;;;;;;3.44;72.72;103128.32;106476;1257;60585;-79
2024/01/30 06:43:57;;;;;;;;;;;;;;;3.46;73.30;103128.90;106383;1256;73884;-80
2024/01/30 06:46:29;;;;;;;;;;;;;;;3.48;74.71;103131.58;106353;1260;68655;-80
2024/01/30 06:48:57;;;;;;;;;;;;;;;3.55;75.87;103136.04;106378;1257;71385;-80
2024/01/30 06:51:29;;;;;;;;;;;;;;;3.70;76.42;103130.58;106349;1258;60364;-80
2024/01/30 06:54:02;;;;;;;;;;;;;;;3.92;76.41;103130.17;106566;1254;60805;-80
2024/01/30 06:56:36;;;;;;;;;;;;;;;4.13;76.41;103127.86;106874;1254;74299;-81
2024/01/30 06:59:03;;;;;;;;;;;;;;;4.40;76.52;103124.25;106479;1254;68359;-81
2024/01/30 07:01:35;;;;;;;;;;;;;;;4.67;76.14;103130.58;106339;1260;70583;-81
2024/01/30 07:04:08;;;;;;;;;;;;;;;4.96;75.61;103133.75;106405;1260;60400;-81
2024/01/30 07:06:46;;;;;;;;;;;;;;;5.16;75.84;103138.66;106540;1258;60538;-81
2024/01/30 07:09:18;;;;;;;;;;;;;;;5.20;76.92;103138.64;106567;1258;74341;-81
2024/01/30 07:11:45;;;;;;;;;;;;;;;5.38;76.73;103139.63;106514;1260;68392;-81
2024/01/30 07:14:19;;;;;;;;;;;;;;;5.54;75.95;103135.35;106481;1259;70584;-81
2024/01/30 07:16:47;;;;;;;;;;;;;;;5.67;75.33;103131.66;106640;1255;60833;-81
2024/01/30 07:19:14;;;;;;;;;;;;;;;5.86;74.42;103128.70;106766;1254;60426;-81
2024/01/30 07:21:42;;;;;;;;;;;;;;;5.94;73.39;103126.30;106747;1264;74380;-78
2024/01/30 07:24:16;;;;;;;;;;;;;;;5.97;72.70;103122.02;106790;1254;68389;-80
2024/01/30 07:26:43;;;;;;;;;;;;;;;6.09;72.16;103117.13;106775;1254;72714;-78
2024/01/30 07:29:11;;;;;;;;;;;;;;;6.09;71.62;103117.73;107038;1254;59676;-81
2024/01/30 07:31:38;;;;;;;;;;;;;;;6.16;70.70;103116.43;106949;1254;61182;-80
2024/01/30 07:34:06;;;;;;;;;;;;;;;6.42;69.59;103111.86;106932;1256;72678;-81
2024/01/30 07:36:38;;;;;;;;;;;;;;;6.53;68.56;103102.37;106697;1255;68660;-81
2024/01/30 07:39:11;;;;;;;;;;;;;;;6.65;67.78;103101.08;107775;1252;71450;-81
2024/01/30 07:41:44;;;;;;;;;;;;;;;6.73;66.66;103096.49;106759;1254;61195;-81
2024/01/30 07:44:12;;;;;;;;;;;;;;;6.83;65.03;103092.02;107361;1254;59912;-78
2024/01/30 07:46:39;;;;;;;;;;;;;;;6.93;64.16;103087.58;106799;1258;72020;-78
2024/01/30 07:49:14;;;;;;;;;;;;;;;6.98;63.72;103085.67;106880;1259;68530;-79
2024/01/30 07:51:43;;;;;;;;;;;;;;;7.06;63.62;103091.29;107142;1254;74174;-80
2024/01/30 07:54:12;;;;;;;;;;;;;;;7.10;63.29;103094.48;106696;1258;60536;-80
2024/01/30 07:56:46;;;;;;;;;;;;;;;7.19;62.14;103092.77;106791;1258;60369;-80
2024/01/30 07:59:21;;;;;;;;;;;;;;;7.19;61.77;103087.48;106673;1257;73807;-79
2024/01/30 08:01:49;;;;;;;;;;;;;;;7.24;60.98;103086.14;106905;1254;66959;-80
2024/01/30 08:04:17;;;;;;;;;;;;;;;7.26;59.54;103086.63;106762;1254;71413;-80
2024/01/30 08:06:51;;;;;;;;;;;;;;;7.32;58.70;103085.72;106593;1258;176680;-79
2024/01/30 08:09:24;;;;;;;;;;;;;;;7.41;58.04;103090.72;106675;1254;60459;-78
2024/01/30 08:11:52;;;;;;;;;;;;;;;7.54;57.56;103085.23;107063;1260;74340;-78
2024/01/30 08:14:26;;;;;;;;;;;;;;;7.44;57.01;103078.55;106807;1257;69910;-80
2024/01/30 08:17:00;;;;;;;;;;;;;;;7.59;56.81;103079.21;106786;1255;74747;-79
2024/01/30 08:19:27;;;;;;;;;;;;;;;7.66;56.51;103075.55;106549;1254;61327;-79
2024/01/30 08:22:01;;;;;;;;;;;;;;;7.74;55.81;103077.20;106543;1260;62859;-78
2024/01/30 08:24:35;;;;;;;;;;;;;;;7.77;55.16;103076.48;106512;1259;73786;-80
2024/01/30 08:27:12;;;;;;;;;;;;;;;7.90;55.06;103075.91;106506;1258;68467;-79
2024/01/30 08:29:39;;;;;;;;;;;;;;;7.77;55.15;103074.17;106524;1257;72027;-79
2024/01/30 08:32:07;;;;;;;;;;;;;;;7.69;55.76;103072.10;107430;1254;60494;-78
2024/01/30 08:34:36;;;;;;;;;;;;;;;7.86;56.03;103074.16;107589;1254;61160;-80
2024/01/30 08:37:04;;;;;;;;;;;;;;;7.97;55.75;103072.28;107732;1259;73420;-80
2024/01/30 08:39:37;;;;;;;;;;;;;;;8.00;54.94;103072.64;106801;1258;70482;-80
2024/01/30 08:42:11;;;;;;;;;;;;;;;8.04;54.97;103069.43;106757;1257;71432;-79
2024/01/30 08:44:45;;;;;;;;;;;;;;;8.10;54.83;103069.19;106784;1259;61164;-80
2024/01/30 08:47:12;;;;;;;;;;;;;;;8.13;54.28;103068.96;106707;1254;62003;-79
2024/01/30 08:49:40;;;;;;;;;;;;;;;8.11;54.23;103063.24;106630;1254;76025;-80
2024/01/30 08:52:12;;;;;;;;;;;;;;;8.12;53.85;103062.45;106750;1254;69116;-80
2024/01/30 08:54:40;;;;;;;;;;;;;;;8.07;53.41;103064.85;106802;1257;73594;-80
2024/01/30 08:57:12;;;;;;;;;;;;;;;8.05;53.23;103066.30;106793;1254;61353;-80
2024/01/30 08:59:46;;;;;;;;;;;;;;;8.05;53.04;103058.90;106621;1254;61326;-79
2024/01/30 09:02:16;;;;;;;;;;;;;;;8.24;51.98;103051.59;106801;1254;76706;-79
2024/01/30 09:04:44;;;;;;;;;;;;;;;8.23;51.71;103046.30;106785;1254;69597;-80
2024/01/30 09:07:16;;;;;;;;;;;;;;;8.13;52.06;103043.95;106698;1254;72660;-79
2024/01/30 09:09:49;;;;;;;;;;;;;;;8.14;52.30;103037.84;106382;1260;61176;-79
2024/01/30 09:12:17;;;;;;;;;;;;;;;8.26;52.12;103038.70;106579;1254;61295;-79
2024/01/30 09:14:50;;;;;;;;;;;;;;;8.42;51.13;103030.71;106496;1254;76773;-79
2024/01/30 09:17:22;;;;;;;;;;;;;;;8.59;50.73;103033.79;106925;1257;69308;-80
2024/01/30 09:19:56;;;;;;;;;;;;;;;8.66;50.21;103035.23;106407;1260;74960;-79
2024/01/30 09:22:24;;;;;;;;;;;;;;;8.83;50.12;103029.72;106620;1257;63081;-80
2024/01/30 09:24:51;;;;;;;;;;;;;;;8.97;49.86;103018.35;106722;1254;60165;-79
2024/01/30 09:27:25;;;;;;;;;;;;;;;9.08;49.67;103016.20;106595;1260;77018;-79
2024/01/30 09:29:52;;;;;;;;;;;;;;;9.24;49.17;103011.23;106516;1257;67201;-79
2024/01/30 09:32:24;;;;;;;;;;;;;;;9.37;48.71;103007.09;106649;1254;72696;-80
2024/01/30 09:34:58;;;;;;;;;;;;;;;9.49;48.36;103007.88;106743;1256;61375;-79
2024/01/30 09:37:32;;;;;;;;;;;;;;;9.54;48.37;103003.23;106426;1254;62053;-79
2024/01/30 09:40:00;;;;;;;;;;;;;;;9.51;47.10;103006.60;106724;1254;75541;-79
2024/01/30 09:42:37;;;;;;;;;;;;;;;9.48;47.13;103003.64;106526;1258;68371;-79
2024/01/30 09:45:10;;;;;;;;;;;;;;;9.40;47.19;102998.48;106503;1255;73352;-79
2024/01/30 09:47:44;;;;;;;;;;;;;;;9.42;46.83;102997.52;106399;1254;61333;-79
2024/01/30 09:50:12;;;;;;;;;;;;;;;9.43;46.84;102998.47;106705;1254;61824;-79
2024/01/30 09:52:46;;;;;;;;;;;;;;;9.34;46.84;102990.54;106609;1259;73961;-80
2024/01/30 09:55:20;;;;;;;;;;;;;;;9.28;47.19;102991.20;106372;1254;67265;-79
2024/01/30 09:57:47;;;;;;;;;;;;;;;9.36;47.30;102989.03;106196;1257;70970;-79
2024/01/30 10:00:26;;;;;;;;;;;;;;;9.51;46.96;102978.32;106418;1258;61349;-79
2024/01/30 10:02:59;;;;;;;;;;;;;;;9.56;46.37;102978.16;106514;1258;61183;-79
2024/01/30 10:05:30;;;;;;;;;;;;;;;9.57;46.63;102978.91;106713;1257;75542;-80
2024/01/30 10:07:58;;;;;;;;;;;;;;;9.70;46.73;102972.94;106796;1259;71250;-79
2024/01/30 10:10:31;;;;;;;;;;;;;;;9.74;46.66;102976.63;106560;1254;74929;-79
2024/01/30 10:12:59;;;;;;;;;;;;;;;9.81;46.17;102970.05;106555;1258;61435;-79
2024/01/30 10:15:35;;;;;;;;;;;;;;;9.85;45.88;102965.89;106587;1254;61616;-79
2024/01/30 10:18:03;;;;;;;;;;;;;;;9.90;46.33;102959.80;106647;1259;77105;-80
2024/01/30 10:20:37;;;;;;;;;;;;;;;10.00;46.18;102951.65;106658;1254;71034;-79
2024/01/30 10:23:08;;;;;;;;;;;;;;;10.04;45.71;102944.36;106402;1254;73519;-79
2024/01/30 10:25:35;;;;;;;;;;;;;;;10.06;45.77;102940.13;106448;1259;61619;-80
2024/01/30 10:28:03;;;;;;;;;;;;;;;10.18;45.63;102931.33;106381;1253;62295;-79
2024/01/30 10:30:31;;;;;;;;;;;;;;;10.31;45.35;102926.94;106534;1256;76811;-80
2024/01/30 10:32:59;;;;;;;;;;;;;;;10.40;45.13;102924.55;106993;1259;70556;-79
2024/01/30 10:35:27;;;;;;;;;;;;;;;10.49;44.72;102927.66;106572;1257;74980;-80
2024/01/30 10:38:01;;;;;;;;;;;;;;;10.56;44.78;102922.77;106724;1262;61382;-79
2024/01/30 10:40:29;;;;;;;;;;;;;;;10.70;44.42;102925.25;106478;1254;61343;-79
2024/01/30 10:42:57;;;;;;;;;;;;;;;10.71;44.05;102921.21;106675;1257;76734;-79
2024/01/30 10:45:27;;;;;;;;;;;;;;;10.75;43.80;102918.02;106499;1256;69674;-79
2024/01/30 10:48:02;;;;;;;;;;;;;;;10.75;43.83;102915.52;106552;1256;73849;-80
2024/01/30 10:50:30;;;;;;;;;;;;;;;10.69;44.03;102915.50;106727;1256;61368;-79
2024/01/30 10:52:57;;;;;;;;;;;;;;;10.73;43.90;102913.71;106452;1257;61351;-79
2024/01/30 10:55:31;;;;;;;;;;;;;;;10.83;43.45;102912.05;106574;1253;75734;-79
2024/01/30 10:57:59;;;;;;;;;;;;;;;10.83;43.25;102907.93;106828;1253;68846;-79
2024/01/30 11:00:28;;;;;;;;;;;;;;;10.84;43.40;102911.87;106621;1253;74799;-80
2024/01/30 11:02:56;;;;;;;;;;;;;;;10.79;43.22;102911.41;106577;1257;61340;-79
2024/01/30 11:05:29;;;;;;;;;;;;;;;10.84;43.35;102908.89;106667;1253;62086;-79
2024/01/30 11:08:10;;;;;;;;;;;;;;;10.89;43.62;102896.86;106739;1254;77032;-79
2024/01/30 11:10:45;;;;;;;;;;;;;;;10.90;43.67;102883.04;106782;1256;69753;-79
2024/01/30 11:13:13;;;;;;;;;;;;;;;11.04;43.80;102873.52;106613;1253;73697;-79
2024/01/30 11:15:41;;;;;;;;;;;;;;;11.16;42.99;102872.43;109037;1254;61459;-79
2024/01/30 11:18:44;;;;;;;;;;;;;;;11.15;42.59;102876.14;109157;1253;61629;-79
2024/01/30 11:21:12;;;;;;;;;;;;;;;11.21;42.99;102873.94;106780;1257;76768;-79
2024/01/30 11:23:46;;;;;;;;;;;;;;;11.26;42.76;102871.50;106609;1253;70549;-79
2024/01/30 11:26:23;;;;;;;;;;;;;;;11.37;42.38;102869.16;106576;1254;73767;-79
2024/01/30 11:28:57;;;;;;;;;;;;;;;11.48;41.81;102862.48;106694;1253;61356;-78
2024/01/30 11:31:26;;;;;;;;;;;;;;;11.47;41.63;102862.45;106566;1253;61303;-78
2024/01/30 11:33:59;;;;;;;;;;;;;;;11.31;42.02;102862.11;106628;1258;75333;-78
2024/01/30 11:36:34;;;;;;;;;;;;;;;11.03;42.53;102862.70;106396;1255;71817;-78
2024/01/30 11:39:02;;;;;;;;;;;;;;;10.96;42.49;102860.19;106498;1257;74873;-79
2024/01/30 11:41:30;;;;;;;;;;;;;;;10.92;42.79;102859.17;106517;1254;61307;-79
2024/01/30 11:44:03;;;;;;;;;;;;;;;10.96;42.81;102853.63;106589;1253;61907;-78
2024/01/30 11:46:31;;;;;;;;;;;;;;;10.99;42.89;102851.63;106981;1253;75442;-79
2024/01/30 11:48:59;;;;;;;;;;;;;;;10.87;42.90;102845.11;106317;1259;69530;-79
2024/01/30 11:51:33;;;;;;;;;;;;;;;10.89;42.72;102844.52;106549;1256;73514;-78
2024/01/30 11:54:00;;;;;;;;;;;;;;;10.86;43.09;102834.52;106503;1256;61378;-78
2024/01/30 11:56:28;;;;;;;;;;;;;;;10.75;43.27;102832.59;106600;1255;62986;-79
2024/01/30 11:59:02;;;;;;;;;;;;;;;10.73;43.36;102827.63;106533;1259;75216;-78
2024/01/30 12:01:36;;;;;;;;;;;;;;;10.70;43.51;102830.10;106576;1259;69934;-79
2024/01/30 12:04:08;;;;;;;;;;;;;;;10.78;43.23;102833.61;106331;1254;73614;-78
2024/01/30 12:06:36;;;;;;;;;;;;;;;10.79;43.25;102831.60;106652;1259;61375;-79
2024/01/30 12:09:13;;;;;;;;;;;;;;;10.76;43.14;102830.39;106781;1254;61353;-79
2024/01/30 12:11:47;;;;;;;;;;;;;;;10.75;43.18;102828.41;106816;1258;76651;-79
2024/01/30 12:14:15;;;;;;;;;;;;;;;10.77;43.21;102829.24;107310;1257;69608;-79
2024/01/30 12:16:43;;;;;;;;;;;;;;;10.75;43.31;102832.49;106493;1257;75361;-78
2024/01/30 12:19:27;;;;;;;;;;;;;;;10.72;42.97;102830.20;106870;1257;60620;-79
2024/01/30 12:22:02;;;;;;;;;;;;;;;10.77;43.19;102827.98;106624;1253;61387;-79
2024/01/30 12:24:36;;;;;;;;;;;;;;;10.81;43.14;102822.48;106657;1253;76995;-79
2024/01/30 12:27:10;;;;;;;;;;;;;;;10.82;43.03;102819.73;106732;1259;70474;-79
2024/01/30 12:29:44;;;;;;;;;;;;;;;10.88;43.05;102815.11;106405;1260;75049;-80
2024/01/30 12:32:17;;;;;;;;;;;;;;;10.91;43.22;102816.08;106486;1253;61831;-79
2024/01/30 12:34:51;;;;;;;;;;;;;;;10.80;43.22;102814.63;106594;1259;61882;-78
2024/01/30 12:37:33;;;;;;;;;;;;;;;10.79;43.37;102816.61;106448;1259;77101;-78
2024/01/30 12:40:08;;;;;;;;;;;;;;;10.80;43.39;102810.29;106510;1254;68398;-78
2024/01/30 12:42:42;;;;;;;;;;;;;;;10.82;43.22;102809.05;106618;1254;74115;-78
2024/01/30 12:45:10;;;;;;;;;;;;;;;10.81;42.86;102801.48;106637;1253;61381;-78
2024/01/30 12:47:44;;;;;;;;;;;;;;;10.85;42.67;102799.04;106805;1254;62214;-78
2024/01/30 12:50:19;;;;;;;;;;;;;;;11.02;42.73;102795.35;106750;1259;77197;-79
2024/01/30 12:52:52;;;;;;;;;;;;;;;11.07;42.64;102799.35;106485;1253;70309;-79
2024/01/30 12:55:20;;;;;;;;;;;;;;;11.09;42.30;102797.56;106639;1253;74760;-79
2024/01/30 12:57:55;;;;;;;;;;;;;;;11.07;42.44;102795.36;106486;1254;61353;-79
2024/01/30 13:00:29;;;;;;;;;;;;;;;11.11;42.46;102794.55;106832;1259;62463;-79
2024/01/30 13:02:57;;;;;;;;;;;;;;;11.05;42.13;102793.17;106612;1254;77086;-79
2024/01/30 13:05:31;;;;;;;;;;;;;;;10.99;42.29;102789.48;106566;1253;70970;-79
2024/01/30 13:08:05;;;;;;;;;;;;;;;10.91;42.40;102789.20;106855;1254;74230;-79